createdAt,value
2019-03-29T00:00:40.645Z,58.97
2019-03-29T00:03:17.282Z,61.10
2019-03-29T00:05:51.503Z,60.10
2019-03-29T00:08:25.747Z,60.37
2019-03-29T00:11:03.410Z,58.40
2019-03-29T00:13:34.885Z,59.97
2019-03-29T00:16:06.299Z,67.73
2019-03-29T00:18:37.930Z,67.13
2019-03-29T00:21:36.818Z,60.63
2019-03-29T00:24:06.634Z,67.07
2019-03-29T00:26:30.431Z,63.07
2019-03-29T00:29:03.013Z,68.67
2019-03-29T00:31:34.598Z,66.60
2019-03-29T00:34:20.870Z,68.73
2019-03-29T00:37:18.846Z,68.57
2019-03-29T00:39:52.785Z,79.53
2019-03-29T00:42:24.161Z,77.73
2019-03-29T00:44:55.502Z,67.00
2019-03-29T00:47:53.685Z,76.07
2019-03-29T00:50:51.561Z,67.20
2019-03-29T00:53:23.239Z,72.87
2019-03-29T00:55:54.585Z,66.63
2019-03-29T00:58:27.590Z,62.47
2019-03-29T01:00:59.916Z,76.57
2019-03-29T01:03:37.107Z,74.43
2019-03-29T01:06:23.903Z,72.60
2019-03-29T01:08:58.070Z,82.33
2019-03-29T01:11:29.291Z,66.37
2019-03-29T01:14:00.784Z,76.90
2019-03-29T01:16:32.352Z,71.47
2019-03-29T01:19:27.496Z,79.93
2019-03-29T01:22:13.973Z,94.80
2019-03-29T01:24:46.130Z,74.07
2019-03-29T01:27:19.243Z,77.37
2019-03-29T01:29:51.202Z,80.73
2019-03-29T01:32:22.582Z,86.33
2019-03-29T01:35:13.755Z,81.77
2019-03-29T01:37:54.164Z,79.43
2019-03-29T01:40:23.871Z,76.27
2019-03-29T01:42:55.315Z,80.40
2019-03-29T01:45:26.573Z,96.90
2019-03-29T01:47:57.944Z,81.27
2019-03-29T02:10:26.206Z,80.57
2019-03-29T02:12:57.573Z,87.63
2019-03-29T02:15:28.950Z,93.27
2019-03-29T02:18:01.720Z,83.17
2019-03-29T02:20:33.110Z,79.23
2019-03-29T02:23:32.623Z,75.63
2019-03-29T02:26:04.036Z,95.17
2019-03-29T02:28:35.392Z,107.63
2019-03-29T02:31:09.427Z,92.73
2019-03-29T02:33:41.191Z,87.40
2019-03-29T02:36:39.604Z,89.10
2019-03-29T02:39:48.545Z,84.53
2019-03-29T02:42:14.794Z,82.87
2019-03-29T02:44:46.583Z,81.80
2019-03-29T02:47:17.843Z,96.03
2019-03-29T02:49:49.191Z,92.67
2019-03-29T02:52:28.671Z,81.80
2019-03-29T02:55:16.461Z,90.80
2019-03-29T02:57:49.822Z,95.77
2019-03-29T03:00:21.260Z,93.03
2019-03-29T03:02:53.336Z,95.50
2019-03-29T03:05:28.021Z,91.50
2019-03-29T03:11:55.103Z,101.37
2019-03-29T03:14:26.487Z,93.30
2019-03-29T03:16:57.904Z,93.30
2019-03-29T03:19:29.271Z,88.30
2019-03-29T03:22:24.363Z,91.60
2019-03-29T03:25:10.159Z,94.77
2019-03-29T03:27:44.103Z,93.37
2019-03-29T03:30:15.447Z,98.47
2019-03-29T03:32:46.772Z,91.93
2019-03-29T03:35:18.450Z,107.17
2019-03-29T03:37:53.783Z,101.50
2019-03-29T03:40:30.834Z,98.30
2019-03-29T03:43:04.977Z,109.93
2019-03-29T03:45:38.850Z,126.03
2019-03-29T03:48:13.220Z,106.17
2019-03-29T03:50:46.136Z,106.07
2019-03-29T03:53:17.856Z,96.77
2019-03-29T03:56:10.872Z,107.30
2019-03-29T03:58:42.909Z,114.73
2019-03-29T04:01:14.395Z,102.53
2019-03-29T04:03:45.818Z,95.47
2019-03-29T04:06:17.264Z,137.93
2019-03-29T04:08:48.638Z,135.90
2019-03-29T04:11:28.891Z,107.47
2019-03-29T04:14:01.320Z,99.00
2019-03-29T04:16:32.685Z,105.90
2019-03-29T04:19:07.251Z,116.77
2019-03-29T04:21:38.611Z,126.27
2019-03-29T04:24:17.732Z,122.17
2019-03-29T04:27:03.470Z,108.83
2019-03-29T04:29:34.928Z,100.73
2019-03-29T04:32:06.510Z,111.57
2019-03-29T04:34:37.840Z,117.43
2019-03-29T04:37:09.313Z,113.43
2019-03-29T04:39:40.897Z,119.93
2019-03-29T04:42:34.297Z,106.60
2019-03-29T04:45:06.694Z,115.97
2019-03-29T04:47:38.128Z,114.10
2019-03-29T04:50:09.801Z,119.67
2019-03-29T04:52:41.272Z,118.53
2019-03-29T04:55:12.785Z,99.33
2019-03-29T04:57:45.052Z,106.50
2019-03-29T05:00:17.122Z,102.50
2019-03-29T05:02:51.741Z,122.13
2019-03-29T05:05:23.569Z,119.23
2019-03-29T05:07:56.373Z,148.67
2019-03-29T05:10:28.606Z,108.27
2019-03-29T05:13:00.138Z,94.97
2019-03-29T05:15:39.305Z,97.03
2019-03-29T05:18:17.658Z,92.30
2019-03-29T05:20:49.148Z,104.53
2019-03-29T05:23:23.128Z,96.67
2019-03-29T05:27:04.162Z,109.37
2019-03-29T05:29:47.122Z,95.30
2019-03-29T05:32:29.677Z,106.57
2019-03-29T05:35:04.314Z,104.10
2019-03-29T05:37:35.838Z,112.37
2019-03-29T05:40:07.208Z,102.47
2019-03-29T05:42:38.684Z,100.47
2019-03-29T05:45:26.797Z,110.67
2019-03-29T05:48:32.552Z,93.37
2019-03-29T05:51:06.856Z,111.60
2019-03-29T05:53:38.122Z,92.97
2019-03-29T05:56:09.512Z,114.23
2019-03-29T05:58:42.560Z,106.67
2019-03-29T06:01:23.479Z,130.57
2019-03-29T06:03:55.872Z,111.00
2019-03-29T06:06:30.559Z,109.83
2019-03-29T06:09:05.090Z,102.93
2019-03-29T06:11:52.271Z,124.10
2019-03-29T06:17:25.871Z,113.90
2019-03-29T06:19:57.479Z,100.40
2019-03-29T06:22:32.999Z,106.00
2019-03-29T06:25:29.469Z,125.33
2019-03-29T06:28:22.144Z,94.10
2019-03-29T06:31:00.378Z,105.20
2019-03-29T06:34:01.053Z,94.27
2019-03-29T06:37:29.246Z,96.40
2019-03-29T06:40:03.886Z,93.10
2019-03-29T06:43:08.540Z,92.37
2019-03-29T06:45:48.820Z,97.97
2019-03-29T06:48:27.056Z,91.77
2019-03-29T06:50:58.455Z,94.63
2019-03-29T06:53:30.835Z,95.40
2019-03-29T06:56:02.209Z,109.17
2019-03-29T06:58:35.163Z,88.87
2019-03-29T07:01:08.171Z,88.17
2019-03-29T07:03:42.399Z,92.83
2019-03-29T07:06:14.358Z,88.90
2019-03-29T07:08:46.484Z,86.53
2019-03-29T07:11:20.613Z,106.37
2019-03-29T07:13:57.658Z,85.57
2019-03-29T07:16:27.547Z,90.07
2019-03-29T07:18:58.901Z,99.43
2019-03-29T07:21:30.371Z,89.30
2019-03-29T07:24:03.163Z,87.73
2019-03-29T07:26:34.641Z,81.83
2019-03-29T07:29:13.696Z,84.33
2019-03-29T07:31:53.280Z,77.60
2019-03-29T07:34:30.236Z,73.17
2019-03-29T07:37:05.663Z,77.60
2019-03-29T07:39:37.484Z,75.80
2019-03-29T07:42:12.282Z,71.53
2019-03-29T07:44:43.830Z,66.87
2019-03-29T07:47:17.535Z,71.57
2019-03-29T07:49:48.875Z,73.50
2019-03-29T07:52:20.199Z,70.10
2019-03-29T07:54:53.197Z,78.53
2019-03-29T07:57:25.089Z,80.30
2019-03-29T07:59:56.410Z,84.47
2019-03-29T08:02:30.794Z,86.63
2019-03-29T08:05:02.138Z,85.70
2019-03-29T08:07:33.575Z,91.80
2019-03-29T08:10:06.691Z,84.33
2019-03-29T08:12:40.688Z,86.43
2019-03-29T08:15:12.501Z,89.63
2019-03-29T08:17:43.873Z,90.80
2019-03-29T08:20:38.689Z,92.17
2019-03-29T08:22:49.988Z,87.87
2019-03-29T08:25:21.209Z,96.60
2019-03-29T08:27:52.539Z,87.70
2019-03-29T08:30:23.822Z,94.57
2019-03-29T08:32:57.278Z,83.67
2019-03-29T08:35:31.044Z,86.60
2019-03-29T08:38:05.857Z,83.50
2019-03-29T08:40:35.366Z,84.57
2019-03-29T08:43:07.371Z,79.23
2019-03-29T08:45:38.729Z,78.47
2019-03-29T08:48:10.081Z,75.23
2019-03-29T08:50:44.203Z,79.73
2019-03-29T08:53:15.641Z,79.23
2019-03-29T08:55:47.082Z,79.37
2019-03-29T08:58:18.418Z,76.63
2019-03-29T09:00:49.792Z,81.60
2019-03-29T09:03:22.281Z,82.40
2019-03-29T09:05:55.731Z,85.07
2019-03-29T09:08:27.201Z,79.97
2019-03-29T09:10:58.658Z,79.40
2019-03-29T09:13:32.924Z,88.40
2019-03-29T09:16:04.295Z,89.40
2019-03-29T09:18:36.378Z,83.27
2019-03-29T09:21:07.827Z,92.70
2019-03-29T09:23:39.091Z,90.80
2019-03-29T09:26:10.478Z,89.27
2019-03-29T09:28:41.935Z,89.50
2019-03-29T09:31:13.298Z,94.17
2019-03-29T09:33:44.668Z,101.20
2019-03-29T09:36:17.727Z,102.17
2019-03-29T09:38:48.993Z,100.90
2019-03-29T09:41:20.710Z,101.97
2019-03-29T09:43:54.282Z,98.13
2019-03-29T09:46:25.081Z,103.23
2019-03-29T09:48:56.393Z,97.73
2019-03-29T09:51:27.871Z,96.43
2019-03-29T09:53:59.223Z,96.30
2019-03-29T09:56:38.650Z,98.23
2019-03-29T09:59:03.763Z,77.63
2019-03-29T10:01:35.226Z,62.57
2019-03-29T10:04:06.736Z,78.87
2019-03-29T10:06:38.065Z,86.73
2019-03-29T10:09:11.210Z,85.50
2019-03-29T10:11:42.639Z,77.30
2019-03-29T10:14:13.966Z,78.97
2019-03-29T10:16:45.278Z,81.10
2019-03-29T10:19:16.625Z,82.03
2019-03-29T10:21:49.562Z,86.53
2019-03-29T10:24:21.030Z,82.33
2019-03-29T10:26:52.343Z,70.67
2019-03-29T10:29:23.613Z,74.30
2019-03-29T10:32:25.044Z,72.27
2019-03-29T10:34:59.402Z,71.90
2019-03-29T10:37:30.845Z,73.20
2019-03-29T10:40:02.137Z,71.17
2019-03-29T10:42:33.405Z,73.43
2019-03-29T10:45:04.890Z,72.53
2019-03-29T10:47:43.635Z,70.43
2019-03-29T10:50:10.362Z,76.70
2019-03-29T10:52:41.706Z,81.57
2019-03-29T10:55:13.097Z,78.90
2019-03-29T10:57:44.399Z,74.40
2019-03-29T11:00:21.537Z,71.00
2019-03-29T11:02:53.032Z,76.73
2019-03-29T11:05:24.337Z,75.70
2019-03-29T11:07:55.662Z,72.33
2019-03-29T11:10:32.610Z,73.87
2019-03-29T11:13:12.773Z,79.90
2019-03-29T11:15:37.126Z,86.87
2019-03-29T11:18:08.902Z,81.70
2019-03-29T11:20:40.302Z,77.87
2019-03-29T11:23:14.809Z,76.70
2019-03-29T11:25:48.837Z,76.43
2019-03-29T11:28:20.584Z,79.27
2019-03-29T11:30:52.028Z,78.33
2019-03-29T11:33:23.551Z,90.40
2019-03-29T11:35:54.902Z,87.17
2019-03-29T11:38:26.217Z,82.87
2019-03-29T11:40:57.523Z,80.57
2019-03-29T11:43:29.841Z,78.03
2019-03-29T11:46:01.269Z,84.07
2019-03-29T11:48:32.607Z,89.17
2019-03-29T11:51:18.292Z,84.07
2019-03-29T11:53:36.969Z,80.43
2019-03-29T11:56:08.238Z,76.90
2019-03-29T11:58:39.593Z,77.90
2019-03-29T12:01:10.947Z,79.80
2019-03-29T12:03:42.515Z,91.57
2019-03-29T12:06:13.880Z,77.47
2019-03-29T12:08:45.210Z,78.67
2019-03-29T12:11:16.647Z,80.00
2019-03-29T12:13:48.035Z,79.07
2019-03-29T12:16:20.567Z,82.40
2019-03-29T12:18:51.884Z,82.13
2019-03-29T12:21:23.236Z,82.33
2019-03-29T12:23:56.088Z,74.60
2019-03-29T12:26:27.437Z,80.33
2019-03-29T12:28:58.869Z,77.43
2019-03-29T12:31:33.279Z,83.03
2019-03-29T12:34:04.639Z,85.23
2019-03-29T12:36:36.039Z,78.07
2019-03-29T12:39:08.087Z,81.60
2019-03-29T12:41:40.556Z,83.87
2019-03-29T12:44:11.965Z,81.17
2019-03-29T12:46:46.634Z,79.60
2019-03-29T12:49:17.986Z,75.60
2019-03-29T12:51:49.312Z,79.87
2019-03-29T12:54:20.688Z,80.13
2019-03-29T12:56:51.966Z,75.33
2019-03-29T12:59:23.522Z,75.50
2019-03-29T13:01:56.201Z,71.73
2019-03-29T13:04:27.623Z,66.77
2019-03-29T13:06:58.933Z,78.73
2019-03-29T13:09:30.224Z,73.93
2019-03-29T13:12:01.630Z,68.30
2019-03-29T13:14:32.950Z,73.00
2019-03-29T13:17:04.925Z,69.93
2019-03-29T13:19:36.207Z,73.20
2019-03-29T13:22:07.906Z,64.10
2019-03-29T13:24:44.827Z,70.27
2019-03-29T13:27:15.147Z,74.17
2019-03-29T13:29:46.544Z,71.77
2019-03-29T13:32:17.929Z,73.33
2019-03-29T13:34:51.454Z,72.50
2019-03-29T13:37:23.007Z,74.57
2019-03-29T13:39:54.405Z,66.43
2019-03-29T13:42:25.758Z,74.97
2019-03-29T13:44:58.795Z,69.83
2019-03-29T13:47:30.188Z,64.90
2019-03-29T13:50:01.665Z,64.13
2019-03-29T13:52:33.253Z,66.40
2019-03-29T13:55:10.222Z,64.87
2019-03-29T13:57:42.892Z,63.40
2019-03-29T14:00:14.596Z,73.03
2019-03-29T14:02:49.436Z,67.77
2019-03-29T14:05:20.858Z,68.53
2019-03-29T14:07:57.079Z,65.30
2019-03-29T14:10:28.439Z,59.97
2019-03-29T14:12:59.800Z,61.40
2019-03-29T14:15:31.984Z,64.73
2019-03-29T14:18:03.448Z,57.73
2019-03-29T14:20:36.074Z,64.83
2019-03-29T14:23:32.912Z,60.63
2019-03-29T14:26:07.541Z,59.00
2019-03-29T14:28:39.762Z,61.10
2019-03-29T14:31:12.883Z,60.30
2019-03-29T14:33:44.560Z,58.77
2019-03-29T14:36:15.935Z,60.77
2019-03-29T14:38:50.948Z,57.83
2019-03-29T14:41:22.356Z,58.00
2019-03-29T14:43:53.719Z,56.67
2019-03-29T14:46:25.212Z,58.37
2019-03-29T14:48:56.589Z,55.90
2019-03-29T14:51:37.701Z,55.77
2019-03-29T14:54:17.193Z,55.70
2019-03-29T15:03:58.980Z,51.90
2019-03-29T15:06:36.694Z,53.50
2019-03-29T15:09:08.799Z,48.97
2019-03-29T15:12:14.309Z,51.00
2019-03-29T15:18:29.244Z,47.50
2019-03-29T15:21:10.460Z,46.33
2019-03-29T15:23:44.157Z,46.13
2019-03-29T15:26:23.017Z,47.20
2019-03-29T15:28:54.482Z,45.90
2019-03-29T15:31:29.032Z,43.33
2019-03-29T15:34:14.168Z,46.20
2019-03-29T15:36:52.023Z,41.83
2019-03-29T15:39:23.452Z,39.20
2019-03-29T15:42:07.536Z,41.73
2019-03-29T15:44:38.993Z,37.03
2019-03-29T15:50:18.398Z,38.20
2019-03-29T15:53:09.370Z,34.50
2019-03-29T15:55:52.553Z,34.53
2019-03-29T16:02:11.098Z,35.87
2019-03-29T16:05:50.961Z,34.93
2019-03-29T16:08:52.378Z,36.50
2019-03-29T16:11:25.067Z,34.13
2019-03-29T16:14:05.852Z,36.50
2019-03-29T16:16:45.913Z,33.67
2019-03-29T16:20:01.492Z,36.63
2019-03-29T16:23:20.217Z,34.53
2019-03-29T16:29:07.038Z,40.47
2019-03-29T16:32:11.479Z,40.00
2019-03-29T16:35:52.372Z,44.03
2019-03-29T16:39:07.366Z,42.97
2019-03-29T16:42:27.667Z,41.80
2019-03-29T16:52:54.102Z,50.07
2019-03-29T16:56:26.849Z,44.77
2019-03-29T17:03:21.347Z,47.77
2019-03-29T17:06:13.930Z,40.17
2019-03-29T17:08:40.244Z,39.40
2019-03-29T17:11:31.440Z,44.13
2019-03-29T17:14:09.569Z,43.97
2019-03-29T17:20:57.047Z,38.07
2019-03-29T17:31:17.982Z,46.63
2019-03-29T17:33:47.036Z,76.60
2019-03-29T17:36:18.444Z,78.90
2019-03-29T17:38:54.330Z,83.43
2019-03-29T17:41:25.800Z,85.63
2019-03-29T17:43:57.227Z,87.67
2019-03-29T17:46:28.514Z,95.83
2019-03-29T17:48:59.710Z,95.70
2019-03-29T17:51:32.505Z,91.67
2019-03-29T17:54:03.737Z,101.43
2019-03-29T17:56:34.973Z,101.67
2019-03-29T17:59:06.297Z,92.43
2019-03-29T18:01:39.334Z,93.00
2019-03-29T18:04:11.763Z,97.93
2019-03-29T18:06:43.062Z,93.30
2019-03-29T18:09:15.707Z,95.97
2019-03-29T18:11:47.246Z,105.70
2019-03-29T18:14:18.755Z,100.47
2019-03-29T18:16:50.142Z,102.17
2019-03-29T18:19:22.343Z,104.87
2019-03-29T18:21:53.925Z,106.00
2019-03-29T18:24:25.308Z,114.50
2019-03-29T18:26:59.586Z,103.03
2019-03-29T18:29:31.006Z,104.80
2019-03-29T18:32:02.996Z,103.03
2019-03-29T18:34:37.630Z,109.47
2019-03-29T18:37:08.581Z,116.00
2019-03-29T18:39:42.649Z,118.87
2019-03-29T18:42:32.763Z,107.93
2019-03-29T18:45:26.967Z,105.80
2019-03-29T18:48:01.919Z,111.53
2019-03-29T18:50:45.464Z,107.30
2019-03-29T18:53:52.213Z,107.90
2019-03-29T19:00:17.622Z,103.50
2019-03-29T19:02:56.494Z,115.33
2019-03-29T19:09:21.543Z,116.87
2019-03-29T19:12:05.778Z,113.47
2019-03-29T19:14:29.206Z,116.57
2019-03-29T19:17:07.693Z,115.53
2019-03-29T19:19:54.015Z,127.07
2019-03-29T19:23:29.670Z,120.23
2019-03-29T19:26:01.144Z,122.90
2019-03-29T19:32:06.852Z,118.13
2019-03-29T19:35:21.338Z,121.83
2019-03-29T19:37:57.335Z,113.67
2019-03-29T19:40:29.873Z,122.13
2019-03-29T19:43:01.134Z,124.97
2019-03-29T19:45:34.277Z,125.70
2019-03-29T19:48:06.540Z,121.20
2019-03-29T19:50:38.326Z,120.43
2019-03-29T19:53:09.797Z,120.07
2019-03-29T19:55:41.212Z,120.37
2019-03-29T19:58:12.778Z,127.83
2019-03-29T20:00:44.296Z,127.80
2019-03-29T20:03:17.269Z,125.00
2019-03-29T20:05:48.575Z,129.37
2019-03-29T20:08:22.059Z,125.93
2019-03-29T20:10:55.554Z,124.93
2019-03-29T20:13:27.155Z,129.40
2019-03-29T20:16:03.459Z,123.67
2019-03-29T20:18:38.945Z,129.83
2019-03-29T20:21:15.046Z,138.23
2019-03-29T20:23:47.208Z,129.47
2019-03-29T20:26:18.622Z,123.27
2019-03-29T20:28:51.225Z,138.13
2019-03-29T20:31:40.551Z,136.53
2019-03-29T20:33:59.686Z,131.13
2019-03-29T20:36:35.772Z,130.80
2019-03-29T20:39:08.802Z,138.00
2019-03-29T20:41:41.881Z,135.00
2019-03-29T20:44:13.259Z,134.93
2019-03-29T20:46:49.558Z,139.50
2019-03-29T20:49:21.973Z,141.00
2019-03-29T20:51:57.600Z,150.27
2019-03-29T20:54:30.851Z,138.73
2019-03-29T20:57:02.567Z,141.30
2019-03-29T20:59:35.114Z,143.70
2019-03-29T21:02:08.950Z,143.90
2019-03-29T21:04:47.919Z,145.50
2019-03-29T21:07:24.218Z,151.03
2019-03-29T21:10:01.910Z,144.13
2019-03-29T21:12:35.634Z,150.03
2019-03-29T21:15:11.706Z,151.10
2019-03-29T21:17:56.454Z,148.50
2019-03-29T21:20:23.253Z,146.13
2019-03-29T21:22:54.717Z,165.37
2019-03-29T21:25:29.094Z,154.73
2019-03-29T21:28:00.476Z,149.60
2019-03-29T21:30:32.204Z,148.47
2019-03-29T21:33:03.547Z,165.30
2019-03-29T21:35:37.323Z,158.90
2019-03-29T21:38:10.865Z,157.47
2019-03-29T21:40:42.099Z,166.07
2019-03-29T21:43:15.053Z,165.37
2019-03-29T21:45:46.358Z,167.30
2019-03-29T21:48:28.636Z,156.03
2019-03-29T21:50:50.994Z,158.07
2019-03-29T21:53:22.393Z,151.63
2019-03-29T21:55:53.680Z,163.83
2019-03-29T21:58:25.051Z,171.40
2019-03-29T22:00:56.534Z,154.70
2019-03-29T22:03:29.496Z,163.20
2019-03-29T22:06:00.954Z,173.27
2019-03-29T22:08:32.277Z,180.93
2019-03-29T22:11:03.595Z,159.00
2019-03-29T22:13:34.914Z,168.13
2019-03-29T22:16:09.367Z,171.53
2019-03-29T22:18:40.371Z,160.87
2019-03-29T22:21:11.697Z,178.23
2019-03-29T22:23:43.143Z,165.50
2019-03-29T22:26:14.942Z,174.37
2019-03-29T22:28:46.214Z,182.70
2019-03-29T22:31:20.290Z,181.73
2019-03-29T22:33:51.531Z,177.57
2019-03-29T22:36:22.825Z,173.63
2019-03-29T22:38:54.082Z,182.57
2019-03-29T22:41:25.333Z,169.60
2019-03-29T22:43:56.626Z,187.90
2019-03-29T22:46:27.996Z,169.83
2019-03-29T22:49:10.430Z,188.40
2019-03-29T22:51:42.264Z,177.97
2019-03-29T22:54:13.609Z,186.87
2019-03-29T22:56:44.909Z,185.30
2019-03-29T22:59:17.544Z,182.80
2019-03-29T23:01:49.150Z,176.40
2019-03-29T23:04:24.303Z,184.70
2019-03-29T23:06:56.186Z,180.47
2019-03-29T23:09:27.475Z,171.13
2019-03-29T23:11:58.054Z,188.27
2019-03-29T23:14:29.339Z,179.30
2019-03-29T23:17:00.701Z,178.63
2019-03-29T23:19:31.931Z,174.87
2019-03-29T23:22:03.249Z,175.47
2019-03-29T23:24:37.223Z,172.70
2019-03-29T23:27:08.624Z,153.27
2019-03-29T23:29:41.550Z,164.83
2019-03-29T23:32:12.945Z,160.63
2019-03-29T23:34:44.237Z,162.37
2019-03-29T23:37:15.448Z,163.67
2019-03-29T23:39:47.815Z,165.40
2019-03-29T23:42:20.247Z,158.50
2019-03-29T23:44:51.542Z,161.37
2019-03-29T23:47:22.944Z,158.37
2019-03-29T23:49:54.349Z,161.07
2019-03-29T23:52:27.293Z,180.60
2019-03-29T23:54:58.661Z,172.30
2019-03-29T23:57:29.936Z,169.00
